Terminal Aerodrome Forecast
Issued by NWS

Home | Current Version | Previous Version | Text Only | Print | Product List | Glossary On
Versions: 1 2 3 4 5 6 7 8 9 10 11 12 13 14 15 16 17 18
338
FTUS43 KPAH 300520
TAFCGI
TAF
KCGI 300520Z 3006/0106 30003KT 4SM BR BKN015 BKN025
     FM301030 32002KT 2SM BR BKN009 OVC025
      TEMPO 3011/3012 3/4SM BR OVC009
     FM301400 32005KT 5SM BR VCSH BKN011 OVC060
     FM301700 32006KT P6SM OVC035=

USA.gov is the U.S. government's official web portal to all federal, state and local government web resources and services.